sensor_id;sensor_type;location;lat;lon;timestamp;P1;durP1;ratioP1;P2;durP2;ratioP2
2656;SDS011;1338;48.176;11.792;2023-04-25T00:00:02;4.77;;;4.37;;
2656;SDS011;1338;48.176;11.792;2023-04-25T00:02:38;4.40;;;4.00;;
2656;SDS011;1338;48.176;11.792;2023-04-25T00:05:08;4.07;;;3.77;;
2656;SDS011;1338;48.176;11.792;2023-04-25T00:07:36;4.60;;;4.20;;
2656;SDS011;1338;48.176;11.792;2023-04-25T00:10:05;4.23;;;3.83;;
2656;SDS011;1338;48.176;11.792;2023-04-25T00:12:35;3.93;;;3.63;;
2656;SDS011;1338;48.176;11.792;2023-04-25T00:15:03;4.27;;;3.97;;
2656;SDS011;1338;48.176;11.792;2023-04-25T00:17:32;4.90;;;4.50;;
2656;SDS011;1338;48.176;11.792;2023-04-25T00:20:02;4.77;;;4.30;;
2656;SDS011;1338;48.176;11.792;2023-04-25T00:22:35;4.30;;;3.97;;
2656;SDS011;1338;48.176;11.792;2023-04-25T00:25:04;4.20;;;3.90;;
2656;SDS011;1338;48.176;11.792;2023-04-25T00:27:33;4.40;;;4.00;;
2656;SDS011;1338;48.176;11.792;2023-04-25T00:30:02;4.40;;;4.10;;
2656;SDS011;1338;48.176;11.792;2023-04-25T00:32:30;4.10;;;3.80;;
2656;SDS011;1338;48.176;11.792;2023-04-25T00:34:58;4.10;;;3.80;;
2656;SDS011;1338;48.176;11.792;2023-04-25T00:37:28;4.30;;;4.00;;
2656;SDS011;1338;48.176;11.792;2023-04-25T00:39:57;4.83;;;4.33;;
2656;SDS011;1338;48.176;11.792;2023-04-25T00:42:25;4.80;;;4.40;;
2656;SDS011;1338;48.176;11.792;2023-04-25T00:44:54;5.00;;;4.43;;
2656;SDS011;1338;48.176;11.792;2023-04-25T00:47:22;4.93;;;4.53;;
2656;SDS011;1338;48.176;11.792;2023-04-25T00:49:52;4.07;;;3.70;;
2656;SDS011;1338;48.176;11.792;2023-04-25T00:52:20;4.83;;;4.40;;
2656;SDS011;1338;48.176;11.792;2023-04-25T00:54:50;4.13;;;3.83;;
2656;SDS011;1338;48.176;11.792;2023-04-25T00:57:18;4.40;;;4.00;;
2656;SDS011;1338;48.176;11.792;2023-04-25T00:59:46;4.40;;;4.00;;
2656;SDS011;1338;48.176;11.792;2023-04-25T01:02:18;5.37;;;4.87;;
2656;SDS011;1338;48.176;11.792;2023-04-25T01:04:47;5.40;;;4.90;;
2656;SDS011;1338;48.176;11.792;2023-04-25T01:07:16;4.80;;;4.40;;
2656;SDS011;1338;48.176;11.792;2023-04-25T01:09:44;4.37;;;4.07;;
2656;SDS011;1338;48.176;11.792;2023-04-25T01:12:14;4.37;;;4.07;;
2656;SDS011;1338;48.176;11.792;2023-04-25T01:14:42;4.87;;;4.47;;
2656;SDS011;1338;48.176;11.792;2023-04-25T01:17:11;4.93;;;4.53;;
2656;SDS011;1338;48.176;11.792;2023-04-25T01:19:39;4.67;;;4.27;;
2656;SDS011;1338;48.176;11.792;2023-04-25T01:22:09;4.50;;;4.20;;
2656;SDS011;1338;48.176;11.792;2023-04-25T01:24:37;4.47;;;4.10;;
2656;SDS011;1338;48.176;11.792;2023-04-25T01:27:06;5.20;;;4.20;;
2656;SDS011;1338;48.176;11.792;2023-04-25T01:29:34;4.20;;;3.90;;
2656;SDS011;1338;48.176;11.792;2023-04-25T01:32:03;4.50;;;4.10;;
2656;SDS011;1338;48.176;11.792;2023-04-25T01:34:32;5.90;;;3.77;;
2656;SDS011;1338;48.176;11.792;2023-04-25T01:37:01;3.77;;;3.47;;
2656;SDS011;1338;48.176;11.792;2023-04-25T01:39:30;4.10;;;3.80;;
2656;SDS011;1338;48.176;11.792;2023-04-25T01:41:59;4.33;;;3.80;;
2656;SDS011;1338;48.176;11.792;2023-04-25T01:44:29;4.50;;;4.10;;
2656;SDS011;1338;48.176;11.792;2023-04-25T01:46:57;5.43;;;4.10;;
2656;SDS011;1338;48.176;11.792;2023-04-25T01:49:26;4.20;;;3.90;;
2656;SDS011;1338;48.176;11.792;2023-04-25T01:51:57;4.53;;;4.13;;
2656;SDS011;1338;48.176;11.792;2023-04-25T01:54:26;4.27;;;3.97;;
2656;SDS011;1338;48.176;11.792;2023-04-25T01:56:56;4.27;;;3.97;;
2656;SDS011;1338;48.176;11.792;2023-04-25T01:59:25;4.73;;;4.00;;
2656;SDS011;1338;48.176;11.792;2023-04-25T02:02:19;4.07;;;3.70;;
2656;SDS011;1338;48.176;11.792;2023-04-25T02:04:47;4.23;;;3.83;;
2656;SDS011;1338;48.176;11.792;2023-04-25T02:07:16;4.80;;;3.90;;
2656;SDS011;1338;48.176;11.792;2023-04-25T02:09:50;4.93;;;4.37;;
2656;SDS011;1338;48.176;11.792;2023-04-25T02:12:22;4.40;;;4.00;;
2656;SDS011;1338;48.176;11.792;2023-04-25T02:15:09;4.80;;;4.40;;
2656;SDS011;1338;48.176;11.792;2023-04-25T02:17:42;5.03;;;4.53;;
2656;SDS011;1338;48.176;11.792;2023-04-25T02:20:11;5.40;;;4.53;;
2656;SDS011;1338;48.176;11.792;2023-04-25T02:22:39;6.10;;;4.37;;
2656;SDS011;1338;48.176;11.792;2023-04-25T02:25:08;4.40;;;4.10;;
2656;SDS011;1338;48.176;11.792;2023-04-25T02:27:39;5.50;;;4.60;;
2656;SDS011;1338;48.176;11.792;2023-04-25T02:30:07;4.73;;;4.23;;
2656;SDS011;1338;48.176;11.792;2023-04-25T02:32:36;5.03;;;4.37;;
2656;SDS011;1338;48.176;11.792;2023-04-25T02:35:04;4.57;;;4.17;;
2656;SDS011;1338;48.176;11.792;2023-04-25T02:37:33;5.13;;;4.63;;
2656;SDS011;1338;48.176;11.792;2023-04-25T02:40:02;4.93;;;4.43;;
2656;SDS011;1338;48.176;11.792;2023-04-25T02:42:31;4.20;;;3.90;;
2656;SDS011;1338;48.176;11.792;2023-04-25T02:45:01;4.37;;;3.97;;
2656;SDS011;1338;48.176;11.792;2023-04-25T02:47:29;4.40;;;4.10;;
2656;SDS011;1338;48.176;11.792;2023-04-25T02:49:58;4.73;;;4.37;;
2656;SDS011;1338;48.176;11.792;2023-04-25T02:52:26;4.47;;;3.70;;
2656;SDS011;1338;48.176;11.792;2023-04-25T02:55:02;4.70;;;4.20;;
2656;SDS011;1338;48.176;11.792;2023-04-25T02:57:32;4.50;;;4.10;;
2656;SDS011;1338;48.176;11.792;2023-04-25T03:00:02;4.63;;;4.23;;
2656;SDS011;1338;48.176;11.792;2023-04-25T03:02:32;4.40;;;4.00;;
2656;SDS011;1338;48.176;11.792;2023-04-25T03:05:00;5.00;;;3.80;;
2656;SDS011;1338;48.176;11.792;2023-04-25T03:07:29;4.57;;;4.17;;
2656;SDS011;1338;48.176;11.792;2023-04-25T03:09:57;4.90;;;4.30;;
2656;SDS011;1338;48.176;11.792;2023-04-25T03:12:28;8.03;;;4.70;;
2656;SDS011;1338;48.176;11.792;2023-04-25T03:14:56;4.80;;;4.40;;
2656;SDS011;1338;48.176;11.792;2023-04-25T03:17:26;4.83;;;4.03;;
2656;SDS011;1338;48.176;11.792;2023-04-25T03:19:55;4.47;;;4.07;;
2656;SDS011;1338;48.176;11.792;2023-04-25T03:22:23;4.40;;;4.00;;
2656;SDS011;1338;48.176;11.792;2023-04-25T03:24:51;3.77;;;3.57;;
2656;SDS011;1338;48.176;11.792;2023-04-25T03:27:19;4.00;;;3.67;;
2656;SDS011;1338;48.176;11.792;2023-04-25T03:29:47;5.33;;;4.10;;
2656;SDS011;1338;48.176;11.792;2023-04-25T03:32:16;4.30;;;4.00;;
2656;SDS011;1338;48.176;11.792;2023-04-25T03:34:46;4.50;;;4.13;;
2656;SDS011;1338;48.176;11.792;2023-04-25T03:37:14;4.83;;;4.20;;
2656;SDS011;1338;48.176;11.792;2023-04-25T03:39:42;4.73;;;4.33;;
2656;SDS011;1338;48.176;11.792;2023-04-25T03:42:11;5.27;;;4.77;;
2656;SDS011;1338;48.176;11.792;2023-04-25T03:44:39;4.73;;;4.33;;
2656;SDS011;1338;48.176;11.792;2023-04-25T03:47:07;4.60;;;4.20;;
2656;SDS011;1338;48.176;11.792;2023-04-25T03:49:36;4.33;;;3.93;;
2656;SDS011;1338;48.176;11.792;2023-04-25T03:52:06;4.97;;;4.47;;
2656;SDS011;1338;48.176;11.792;2023-04-25T03:54:38;5.00;;;4.50;;
2656;SDS011;1338;48.176;11.792;2023-04-25T03:57:17;4.20;;;3.80;;
2656;SDS011;1338;48.176;11.792;2023-04-25T03:59:46;5.00;;;4.60;;
2656;SDS011;1338;48.176;11.792;2023-04-25T04:02:14;4.97;;;4.47;;
2656;SDS011;1338;48.176;11.792;2023-04-25T04:04:43;4.50;;;4.10;;
2656;SDS011;1338;48.176;11.792;2023-04-25T04:07:14;4.90;;;4.50;;
2656;SDS011;1338;48.176;11.792;2023-04-25T04:09:48;4.90;;;4.10;;
2656;SDS011;1338;48.176;11.792;2023-04-25T04:12:26;4.43;;;4.03;;
2656;SDS011;1338;48.176;11.792;2023-04-25T04:14:55;4.30;;;3.90;;
2656;SDS011;1338;48.176;11.792;2023-04-25T04:17:23;4.40;;;4.00;;
2656;SDS011;1338;48.176;11.792;2023-04-25T04:19:51;4.40;;;3.80;;
2656;SDS011;1338;48.176;11.792;2023-04-25T04:22:21;4.17;;;3.80;;
2656;SDS011;1338;48.176;11.792;2023-04-25T04:24:52;4.53;;;3.90;;
2656;SDS011;1338;48.176;11.792;2023-04-25T04:27:36;4.53;;;3.50;;
2656;SDS011;1338;48.176;11.792;2023-04-25T04:30:32;3.40;;;3.20;;
2656;SDS011;1338;48.176;11.792;2023-04-25T04:33:05;4.40;;;3.60;;
2656;SDS011;1338;48.176;11.792;2023-04-25T04:35:34;4.40;;;3.70;;
2656;SDS011;1338;48.176;11.792;2023-04-25T04:38:05;4.20;;;3.60;;
2656;SDS011;1338;48.176;11.792;2023-04-25T04:40:37;3.90;;;3.50;;
2656;SDS011;1338;48.176;11.792;2023-04-25T04:43:20;5.43;;;3.70;;
2656;SDS011;1338;48.176;11.792;2023-04-25T04:46:07;3.80;;;3.50;;
2656;SDS011;1338;48.176;11.792;2023-04-25T04:48:58;3.70;;;3.40;;
2656;SDS011;1338;48.176;11.792;2023-04-25T04:51:45;3.90;;;3.60;;
2656;SDS011;1338;48.176;11.792;2023-04-25T04:54:39;4.00;;;3.40;;
2656;SDS011;1338;48.176;11.792;2023-04-25T04:57:26;3.60;;;3.30;;
2656;SDS011;1338;48.176;11.792;2023-04-25T05:00:13;3.57;;;3.27;;
2656;SDS011;1338;48.176;11.792;2023-04-25T05:02:55;3.70;;;3.40;;
2656;SDS011;1338;48.176;11.792;2023-04-25T05:05:39;3.93;;;3.63;;
2656;SDS011;1338;48.176;11.792;2023-04-25T05:08:44;4.17;;;3.80;;
2656;SDS011;1338;48.176;11.792;2023-04-25T05:11:42;3.90;;;3.60;;
2656;SDS011;1338;48.176;11.792;2023-04-25T05:14:38;4.30;;;3.47;;
2656;SDS011;1338;48.176;11.792;2023-04-25T05:17:27;3.80;;;3.50;;
2656;SDS011;1338;48.176;11.792;2023-04-25T05:20:14;4.20;;;3.80;;
2656;SDS011;1338;48.176;11.792;2023-04-25T05:23:01;3.77;;;3.47;;
2656;SDS011;1338;48.176;11.792;2023-04-25T05:25:47;6.00;;;3.87;;
2656;SDS011;1338;48.176;11.792;2023-04-25T05:28:38;3.87;;;3.57;;
2656;SDS011;1338;48.176;11.792;2023-04-25T05:31:32;3.80;;;3.40;;
2656;SDS011;1338;48.176;11.792;2023-04-25T05:34:06;3.90;;;3.60;;
2656;SDS011;1338;48.176;11.792;2023-04-25T05:37:06;4.10;;;3.80;;
2656;SDS011;1338;48.176;11.792;2023-04-25T05:39:45;4.50;;;4.00;;
2656;SDS011;1338;48.176;11.792;2023-04-25T05:42:45;4.63;;;3.90;;
2656;SDS011;1338;48.176;11.792;2023-04-25T05:45:31;4.07;;;3.70;;
2656;SDS011;1338;48.176;11.792;2023-04-25T05:48:25;4.90;;;4.50;;
2656;SDS011;1338;48.176;11.792;2023-04-25T05:51:14;5.37;;;4.37;;
2656;SDS011;1338;48.176;11.792;2023-04-25T05:54:08;4.60;;;4.20;;
2656;SDS011;1338;48.176;11.792;2023-04-25T05:56:37;5.00;;;4.50;;
2656;SDS011;1338;48.176;11.792;2023-04-25T05:59:06;4.93;;;4.30;;
2656;SDS011;1338;48.176;11.792;2023-04-25T06:01:36;5.30;;;4.07;;
2656;SDS011;1338;48.176;11.792;2023-04-25T06:04:06;4.70;;;4.20;;
2656;SDS011;1338;48.176;11.792;2023-04-25T06:06:34;4.80;;;4.40;;
2656;SDS011;1338;48.176;11.792;2023-04-25T06:09:02;5.07;;;4.57;;
2656;SDS011;1338;48.176;11.792;2023-04-25T06:11:31;5.30;;;4.80;;
2656;SDS011;1338;48.176;11.792;2023-04-25T06:13:59;5.03;;;4.50;;
2656;SDS011;1338;48.176;11.792;2023-04-25T06:16:28;4.77;;;4.33;;
2656;SDS011;1338;48.176;11.792;2023-04-25T06:18:58;4.80;;;4.40;;
2656;SDS011;1338;48.176;11.792;2023-04-25T06:21:26;4.47;;;4.10;;
2656;SDS011;1338;48.176;11.792;2023-04-25T06:23:54;4.70;;;4.10;;
2656;SDS011;1338;48.176;11.792;2023-04-25T06:26:22;5.70;;;4.63;;
2656;SDS011;1338;48.176;11.792;2023-04-25T06:28:51;4.60;;;3.90;;
2656;SDS011;1338;48.176;11.792;2023-04-25T06:31:19;6.87;;;3.70;;
2656;SDS011;1338;48.176;11.792;2023-04-25T06:33:49;4.30;;;4.00;;
2656;SDS011;1338;48.176;11.792;2023-04-25T06:36:18;4.20;;;3.90;;
2656;SDS011;1338;48.176;11.792;2023-04-25T06:38:53;4.63;;;3.80;;
2656;SDS011;1338;48.176;11.792;2023-04-25T06:41:21;5.77;;;4.57;;
2656;SDS011;1338;48.176;11.792;2023-04-25T06:43:50;5.10;;;3.70;;
2656;SDS011;1338;48.176;11.792;2023-04-25T06:46:26;3.97;;;3.67;;
2656;SDS011;1338;48.176;11.792;2023-04-25T06:48:57;4.83;;;4.03;;
2656;SDS011;1338;48.176;11.792;2023-04-25T06:51:26;4.20;;;3.80;;
2656;SDS011;1338;48.176;11.792;2023-04-25T06:53:57;4.77;;;3.90;;
2656;SDS011;1338;48.176;11.792;2023-04-25T06:56:30;4.97;;;4.50;;
2656;SDS011;1338;48.176;11.792;2023-04-25T06:59:06;4.83;;;4.37;;
2656;SDS011;1338;48.176;11.792;2023-04-25T07:01:37;4.80;;;4.40;;
2656;SDS011;1338;48.176;11.792;2023-04-25T07:04:19;4.43;;;4.03;;
2656;SDS011;1338;48.176;11.792;2023-04-25T07:06:51;5.60;;;5.20;;
2656;SDS011;1338;48.176;11.792;2023-04-25T07:09:28;4.43;;;3.63;;
2656;SDS011;1338;48.176;11.792;2023-04-25T07:12:00;4.70;;;4.30;;
2656;SDS011;1338;48.176;11.792;2023-04-25T07:14:28;4.47;;;4.03;;
2656;SDS011;1338;48.176;11.792;2023-04-25T07:16:57;4.93;;;4.40;;
2656;SDS011;1338;48.176;11.792;2023-04-25T07:19:27;7.13;;;4.30;;
2656;SDS011;1338;48.176;11.792;2023-04-25T07:22:00;4.80;;;4.40;;
2656;SDS011;1338;48.176;11.792;2023-04-25T07:24:30;7.43;;;4.57;;
2656;SDS011;1338;48.176;11.792;2023-04-25T07:26:58;5.03;;;4.10;;
2656;SDS011;1338;48.176;11.792;2023-04-25T07:29:30;5.73;;;3.83;;
2656;SDS011;1338;48.176;11.792;2023-04-25T07:31:59;5.30;;;4.90;;
2656;SDS011;1338;48.176;11.792;2023-04-25T07:34:27;4.73;;;4.30;;
2656;SDS011;1338;48.176;11.792;2023-04-25T07:36:56;5.17;;;4.67;;
2656;SDS011;1338;48.176;11.792;2023-04-25T07:39:29;5.43;;;5.03;;
2656;SDS011;1338;48.176;11.792;2023-04-25T07:41:59;5.43;;;4.93;;
2656;SDS011;1338;48.176;11.792;2023-04-25T07:44:29;5.33;;;4.70;;
2656;SDS011;1338;48.176;11.792;2023-04-25T07:46:58;5.20;;;4.67;;
2656;SDS011;1338;48.176;11.792;2023-04-25T07:49:29;5.80;;;4.87;;
2656;SDS011;1338;48.176;11.792;2023-04-25T07:51:58;5.10;;;4.47;;
2656;SDS011;1338;48.176;11.792;2023-04-25T07:54:26;4.70;;;4.27;;
2656;SDS011;1338;48.176;11.792;2023-04-25T07:57:01;4.40;;;4.00;;
2656;SDS011;1338;48.176;11.792;2023-04-25T07:59:30;4.57;;;4.13;;
2656;SDS011;1338;48.176;11.792;2023-04-25T08:02:00;4.60;;;4.17;;
2656;SDS011;1338;48.176;11.792;2023-04-25T08:04:30;4.83;;;4.43;;
2656;SDS011;1338;48.176;11.792;2023-04-25T08:07:03;8.07;;;4.70;;
2656;SDS011;1338;48.176;11.792;2023-04-25T08:09:43;4.63;;;4.23;;
2656;SDS011;1338;48.176;11.792;2023-04-25T08:12:21;4.90;;;4.50;;
2656;SDS011;1338;48.176;11.792;2023-04-25T08:14:50;5.57;;;5.07;;
2656;SDS011;1338;48.176;11.792;2023-04-25T08:17:19;4.73;;;4.33;;
2656;SDS011;1338;48.176;11.792;2023-04-25T08:19:47;5.43;;;4.67;;
2656;SDS011;1338;48.176;11.792;2023-04-25T08:22:22;4.23;;;3.83;;
2656;SDS011;1338;48.176;11.792;2023-04-25T08:24:59;4.53;;;4.10;;
2656;SDS011;1338;48.176;11.792;2023-04-25T08:27:28;4.53;;;4.13;;
2656;SDS011;1338;48.176;11.792;2023-04-25T08:29:57;4.70;;;4.30;;
2656;SDS011;1338;48.176;11.792;2023-04-25T08:32:25;5.20;;;4.70;;
2656;SDS011;1338;48.176;11.792;2023-04-25T08:35:16;6.03;;;4.37;;
2656;SDS011;1338;48.176;11.792;2023-04-25T08:37:44;4.30;;;3.90;;
2656;SDS011;1338;48.176;11.792;2023-04-25T08:40:14;5.33;;;4.47;;
2656;SDS011;1338;48.176;11.792;2023-04-25T08:42:51;5.23;;;4.60;;
2656;SDS011;1338;48.176;11.792;2023-04-25T08:45:21;4.50;;;4.10;;
2656;SDS011;1338;48.176;11.792;2023-04-25T08:47:49;4.27;;;3.87;;
2656;SDS011;1338;48.176;11.792;2023-04-25T08:50:21;5.97;;;4.10;;
2656;SDS011;1338;48.176;11.792;2023-04-25T08:52:53;4.10;;;3.80;;
2656;SDS011;1338;48.176;11.792;2023-04-25T08:55:22;4.20;;;3.90;;
2656;SDS011;1338;48.176;11.792;2023-04-25T08:57:56;4.90;;;4.10;;
2656;SDS011;1338;48.176;11.792;2023-04-25T09:00:26;5.60;;;4.33;;
2656;SDS011;1338;48.176;11.792;2023-04-25T09:02:55;5.43;;;4.53;;
2656;SDS011;1338;48.176;11.792;2023-04-25T09:05:28;5.00;;;4.60;;
2656;SDS011;1338;48.176;11.792;2023-04-25T09:07:57;4.77;;;4.30;;
2656;SDS011;1338;48.176;11.792;2023-04-25T09:10:27;5.70;;;4.43;;
2656;SDS011;1338;48.176;11.792;2023-04-25T09:13:05;4.10;;;3.80;;
2656;SDS011;1338;48.176;11.792;2023-04-25T09:15:58;4.33;;;3.57;;
2656;SDS011;1338;48.176;11.792;2023-04-25T09:18:53;4.03;;;3.70;;
2656;SDS011;1338;48.176;11.792;2023-04-25T09:21:21;3.70;;;3.40;;
2656;SDS011;1338;48.176;11.792;2023-04-25T09:23:50;4.00;;;3.70;;
2656;SDS011;1338;48.176;11.792;2023-04-25T09:26:20;3.77;;;3.50;;
2656;SDS011;1338;48.176;11.792;2023-04-25T09:28:50;3.90;;;3.50;;
2656;SDS011;1338;48.176;11.792;2023-04-25T09:31:34;3.60;;;3.30;;
2656;SDS011;1338;48.176;11.792;2023-04-25T09:34:04;4.07;;;3.67;;
2656;SDS011;1338;48.176;11.792;2023-04-25T09:36:41;3.20;;;3.00;;
2656;SDS011;1338;48.176;11.792;2023-04-25T09:39:48;3.93;;;3.63;;
2656;SDS011;1338;48.176;11.792;2023-04-25T09:42:17;3.73;;;3.43;;
2656;SDS011;1338;48.176;11.792;2023-04-25T09:44:47;3.00;;;2.80;;
2656;SDS011;1338;48.176;11.792;2023-04-25T09:47:15;3.83;;;3.53;;
2656;SDS011;1338;48.176;11.792;2023-04-25T09:49:44;3.47;;;3.27;;
2656;SDS011;1338;48.176;11.792;2023-04-25T09:52:14;4.10;;;3.80;;
2656;SDS011;1338;48.176;11.792;2023-04-25T09:54:56;3.70;;;3.40;;
2656;SDS011;1338;48.176;11.792;2023-04-25T09:57:30;5.73;;;3.37;;
2656;SDS011;1338;48.176;11.792;2023-04-25T10:00:00;3.93;;;3.63;;
2656;SDS011;1338;48.176;11.792;2023-04-25T10:02:39;3.90;;;3.57;;
2656;SDS011;1338;48.176;11.792;2023-04-25T10:05:20;3.77;;;3.47;;
2656;SDS011;1338;48.176;11.792;2023-04-25T10:07:49;4.10;;;3.50;;
2656;SDS011;1338;48.176;11.792;2023-04-25T10:10:18;4.30;;;3.57;;
2656;SDS011;1338;48.176;11.792;2023-04-25T10:12:52;3.47;;;3.20;;
2656;SDS011;1338;48.176;11.792;2023-04-25T10:15:22;3.67;;;3.33;;
2656;SDS011;1338;48.176;11.792;2023-04-25T10:17:50;3.83;;;3.27;;
2656;SDS011;1338;48.176;11.792;2023-04-25T10:20:19;3.70;;;3.40;;
2656;SDS011;1338;48.176;11.792;2023-04-25T10:22:48;3.00;;;2.80;;
2656;SDS011;1338;48.176;11.792;2023-04-25T10:25:20;3.47;;;3.17;;
2656;SDS011;1338;48.176;11.792;2023-04-25T10:27:49;3.50;;;3.13;;
2656;SDS011;1338;48.176;11.792;2023-04-25T10:30:18;3.63;;;3.33;;
2656;SDS011;1338;48.176;11.792;2023-04-25T10:32:48;3.47;;;3.17;;
2656;SDS011;1338;48.176;11.792;2023-04-25T10:35:17;3.60;;;3.30;;
2656;SDS011;1338;48.176;11.792;2023-04-25T10:37:57;4.50;;;3.90;;
2656;SDS011;1338;48.176;11.792;2023-04-25T10:40:31;5.03;;;3.70;;
2656;SDS011;1338;48.176;11.792;2023-04-25T10:46:01;3.83;;;3.53;;
2656;SDS011;1338;48.176;11.792;2023-04-25T10:48:31;3.70;;;3.37;;
2656;SDS011;1338;48.176;11.792;2023-04-25T10:51:08;3.50;;;3.30;;
2656;SDS011;1338;48.176;11.792;2023-04-25T10:53:37;3.53;;;3.23;;
2656;SDS011;1338;48.176;11.792;2023-04-25T10:56:09;3.93;;;3.50;;
2656;SDS011;1338;48.176;11.792;2023-04-25T10:58:43;3.03;;;2.83;;
2656;SDS011;1338;48.176;11.792;2023-04-25T11:01:12;3.13;;;2.60;;
2656;SDS011;1338;48.176;11.792;2023-04-25T11:03:42;3.93;;;3.63;;
2656;SDS011;1338;48.176;11.792;2023-04-25T11:06:15;3.53;;;3.20;;
2656;SDS011;1338;48.176;11.792;2023-04-25T11:08:50;4.43;;;4.03;;
2656;SDS011;1338;48.176;11.792;2023-04-25T11:11:19;3.77;;;3.47;;
2656;SDS011;1338;48.176;11.792;2023-04-25T11:13:47;5.63;;;2.50;;
2656;SDS011;1338;48.176;11.792;2023-04-25T11:16:17;2.20;;;2.10;;
2656;SDS011;1338;48.176;11.792;2023-04-25T11:18:56;4.10;;;2.50;;
2656;SDS011;1338;48.176;11.792;2023-04-25T11:21:25;4.30;;;3.50;;
2656;SDS011;1338;48.176;11.792;2023-04-25T11:23:54;3.53;;;3.07;;
2656;SDS011;1338;48.176;11.792;2023-04-25T11:26:24;4.27;;;3.43;;
2656;SDS011;1338;48.176;11.792;2023-04-25T11:28:56;4.10;;;3.40;;
2656;SDS011;1338;48.176;11.792;2023-04-25T11:31:25;3.93;;;3.63;;
2656;SDS011;1338;48.176;11.792;2023-04-25T11:33:56;3.90;;;3.60;;
2656;SDS011;1338;48.176;11.792;2023-04-25T11:36:24;3.90;;;3.33;;
2656;SDS011;1338;48.176;11.792;2023-04-25T11:38:53;3.97;;;3.60;;
2656;SDS011;1338;48.176;11.792;2023-04-25T11:41:22;3.40;;;3.10;;
2656;SDS011;1338;48.176;11.792;2023-04-25T11:43:52;4.43;;;3.17;;
2656;SDS011;1338;48.176;11.792;2023-04-25T11:46:21;3.67;;;3.30;;
2656;SDS011;1338;48.176;11.792;2023-04-25T11:48:49;3.60;;;3.30;;
2656;SDS011;1338;48.176;11.792;2023-04-25T11:51:20;3.90;;;3.60;;
2656;SDS011;1338;48.176;11.792;2023-04-25T11:53:48;3.80;;;3.10;;
2656;SDS011;1338;48.176;11.792;2023-04-25T11:56:16;3.70;;;3.40;;
2656;SDS011;1338;48.176;11.792;2023-04-25T11:58:54;3.37;;;3.10;;
2656;SDS011;1338;48.176;11.792;2023-04-25T12:01:30;4.17;;;3.77;;
2656;SDS011;1338;48.176;11.792;2023-04-25T12:04:09;3.80;;;3.40;;
2656;SDS011;1338;48.176;11.792;2023-04-25T12:06:42;3.37;;;3.07;;
2656;SDS011;1338;48.176;11.792;2023-04-25T12:09:13;3.47;;;3.17;;
2656;SDS011;1338;48.176;11.792;2023-04-25T12:11:44;2.90;;;2.70;;
2656;SDS011;1338;48.176;11.792;2023-04-25T12:14:20;4.57;;;3.53;;
2656;SDS011;1338;48.176;11.792;2023-04-25T12:16:50;3.67;;;3.37;;
2656;SDS011;1338;48.176;11.792;2023-04-25T12:19:19;3.37;;;3.17;;
2656;SDS011;1338;48.176;11.792;2023-04-25T12:21:49;3.73;;;3.43;;
2656;SDS011;1338;48.176;11.792;2023-04-25T12:24:21;4.10;;;3.80;;
2656;SDS011;1338;48.176;11.792;2023-04-25T12:26:52;3.40;;;3.10;;
2656;SDS011;1338;48.176;11.792;2023-04-25T12:29:25;4.00;;;3.60;;
2656;SDS011;1338;48.176;11.792;2023-04-25T12:32:00;4.20;;;3.80;;
2656;SDS011;1338;48.176;11.792;2023-04-25T12:34:28;4.10;;;3.70;;
2656;SDS011;1338;48.176;11.792;2023-04-25T12:36:59;3.87;;;3.23;;
2656;SDS011;1338;48.176;11.792;2023-04-25T12:39:27;5.03;;;3.73;;
2656;SDS011;1338;48.176;11.792;2023-04-25T12:41:55;3.83;;;3.40;;
2656;SDS011;1338;48.176;11.792;2023-04-25T12:44:23;3.87;;;3.57;;
2656;SDS011;1338;48.176;11.792;2023-04-25T12:46:51;3.77;;;3.47;;
2656;SDS011;1338;48.176;11.792;2023-04-25T12:49:21;4.00;;;3.50;;
2656;SDS011;1338;48.176;11.792;2023-04-25T12:51:49;3.80;;;3.50;;
2656;SDS011;1338;48.176;11.792;2023-04-25T12:54:19;4.70;;;4.27;;
2656;SDS011;1338;48.176;11.792;2023-04-25T12:56:47;5.47;;;3.93;;
2656;SDS011;1338;48.176;11.792;2023-04-25T12:59:16;4.20;;;3.90;;
2656;SDS011;1338;48.176;11.792;2023-04-25T13:01:44;5.20;;;3.97;;
2656;SDS011;1338;48.176;11.792;2023-04-25T13:04:13;3.20;;;3.00;;
2656;SDS011;1338;48.176;11.792;2023-04-25T13:06:42;3.53;;;3.23;;
2656;SDS011;1338;48.176;11.792;2023-04-25T13:09:10;3.50;;;3.20;;
2656;SDS011;1338;48.176;11.792;2023-04-25T13:11:40;3.63;;;3.33;;
2656;SDS011;1338;48.176;11.792;2023-04-25T13:14:08;4.17;;;3.87;;
2656;SDS011;1338;48.176;11.792;2023-04-25T13:16:37;3.93;;;3.63;;
2656;SDS011;1338;48.176;11.792;2023-04-25T13:19:05;3.77;;;3.47;;
2656;SDS011;1338;48.176;11.792;2023-04-25T13:21:37;5.77;;;4.40;;
2656;SDS011;1338;48.176;11.792;2023-04-25T13:24:05;5.00;;;3.60;;
2656;SDS011;1338;48.176;11.792;2023-04-25T13:26:34;4.10;;;3.80;;
2656;SDS011;1338;48.176;11.792;2023-04-25T13:29:03;4.20;;;3.90;;
2656;SDS011;1338;48.176;11.792;2023-04-25T13:31:32;4.10;;;3.80;;
2656;SDS011;1338;48.176;11.792;2023-04-25T13:34:01;3.97;;;3.63;;
2656;SDS011;1338;48.176;11.792;2023-04-25T13:36:29;4.00;;;3.10;;
2656;SDS011;1338;48.176;11.792;2023-04-25T13:38:58;3.20;;;2.40;;
2656;SDS011;1338;48.176;11.792;2023-04-25T13:41:26;2.00;;;1.90;;
2656;SDS011;1338;48.176;11.792;2023-04-25T13:43:54;2.80;;;2.30;;
2656;SDS011;1338;48.176;11.792;2023-04-25T13:46:24;1.83;;;1.73;;
2656;SDS011;1338;48.176;11.792;2023-04-25T13:49:11;1.90;;;1.53;;
2656;SDS011;1338;48.176;11.792;2023-04-25T13:51:39;1.60;;;1.50;;
2656;SDS011;1338;48.176;11.792;2023-04-25T13:54:08;1.63;;;1.40;;
2656;SDS011;1338;48.176;11.792;2023-04-25T13:56:37;1.73;;;1.53;;
2656;SDS011;1338;48.176;11.792;2023-04-25T13:59:05;1.70;;;1.60;;
2656;SDS011;1338;48.176;11.792;2023-04-25T14:01:34;1.70;;;1.60;;
2656;SDS011;1338;48.176;11.792;2023-04-25T14:04:03;2.37;;;2.10;;
2656;SDS011;1338;48.176;11.792;2023-04-25T14:06:31;1.90;;;1.80;;
2656;SDS011;1338;48.176;11.792;2023-04-25T14:08:59;1.87;;;1.70;;
2656;SDS011;1338;48.176;11.792;2023-04-25T14:11:30;3.33;;;1.90;;
2656;SDS011;1338;48.176;11.792;2023-04-25T14:13:58;1.60;;;1.50;;
2656;SDS011;1338;48.176;11.792;2023-04-25T14:16:26;2.07;;;1.97;;
2656;SDS011;1338;48.176;11.792;2023-04-25T14:18:56;2.40;;;2.20;;
2656;SDS011;1338;48.176;11.792;2023-04-25T14:21:24;2.63;;;2.43;;
2656;SDS011;1338;48.176;11.792;2023-04-25T14:23:53;3.10;;;2.90;;
2656;SDS011;1338;48.176;11.792;2023-04-25T14:26:21;4.47;;;2.50;;
2656;SDS011;1338;48.176;11.792;2023-04-25T14:28:49;2.80;;;2.50;;
2656;SDS011;1338;48.176;11.792;2023-04-25T14:31:18;2.93;;;2.60;;
2656;SDS011;1338;48.176;11.792;2023-04-25T14:33:47;2.80;;;2.53;;
2656;SDS011;1338;48.176;11.792;2023-04-25T14:36:16;2.53;;;2.33;;
2656;SDS011;1338;48.176;11.792;2023-04-25T14:38:45;3.03;;;2.80;;
2656;SDS011;1338;48.176;11.792;2023-04-25T14:41:13;3.07;;;2.80;;
2656;SDS011;1338;48.176;11.792;2023-04-25T14:43:41;3.07;;;2.77;;
2656;SDS011;1338;48.176;11.792;2023-04-25T14:46:11;4.07;;;3.70;;
2656;SDS011;1338;48.176;11.792;2023-04-25T14:48:39;3.80;;;3.30;;
2656;SDS011;1338;48.176;11.792;2023-04-25T14:51:07;3.80;;;3.47;;
2656;SDS011;1338;48.176;11.792;2023-04-25T14:53:37;4.37;;;3.97;;
2656;SDS011;1338;48.176;11.792;2023-04-25T14:56:05;4.33;;;4.03;;
2656;SDS011;1338;48.176;11.792;2023-04-25T14:58:33;4.40;;;4.00;;
2656;SDS011;1338;48.176;11.792;2023-04-25T15:01:02;3.90;;;3.60;;
2656;SDS011;1338;48.176;11.792;2023-04-25T15:03:30;5.20;;;3.93;;
2656;SDS011;1338;48.176;11.792;2023-04-25T15:05:59;4.93;;;4.43;;
2656;SDS011;1338;48.176;11.792;2023-04-25T15:08:27;4.90;;;4.50;;
2656;SDS011;1338;48.176;11.792;2023-04-25T15:10:57;4.27;;;3.97;;
2656;SDS011;1338;48.176;11.792;2023-04-25T15:13:25;4.93;;;4.43;;
2656;SDS011;1338;48.176;11.792;2023-04-25T15:15:54;4.40;;;3.60;;
2656;SDS011;1338;48.176;11.792;2023-04-25T15:18:22;4.07;;;3.77;;
2656;SDS011;1338;48.176;11.792;2023-04-25T15:20:51;4.20;;;3.80;;
2656;SDS011;1338;48.176;11.792;2023-04-25T15:23:21;4.33;;;3.83;;
2656;SDS011;1338;48.176;11.792;2023-04-25T15:25:51;4.47;;;4.07;;
2656;SDS011;1338;48.176;11.792;2023-04-25T15:28:21;3.30;;;3.10;;
2656;SDS011;1338;48.176;11.792;2023-04-25T15:30:49;4.27;;;3.87;;